Terminal Aerodrome Forecast
Issued by NWS

Home | Current Version | Previous Version | Text Only | Print | Product List | Glossary On
Versions: 1 2 3 4 5 6 7 8 9 10 11 12 13
121
FTUS41 KCAR 280525
TAFFVE
TAF
KFVE 280525Z 2806/2906 33005KT P6SM FEW250
     FM282200 16005KT P6SM -SHRA OVC030
     FM282300 15005KT P6SM -SHRA OVC040
     FM290100 16006KT 3SM -SHRA OVC045=

USA.gov is the U.S. government's official web portal to all federal, state and local government web resources and services.